createdAt,value
2023-04-18T00:00:26.241Z,84.324
2023-04-18T00:01:26.407Z,84.143
2023-04-18T00:02:26.033Z,84.507
2023-04-18T00:03:26.516Z,84.394
2023-04-18T00:04:27.193Z,84.370
2023-04-18T00:05:26.078Z,84.621
2023-04-18T00:06:26.227Z,83.921
2023-04-18T00:07:26.495Z,84.219
2023-04-18T00:08:25.628Z,84.036
2023-04-18T00:09:26.050Z,84.114
2023-04-18T00:10:26.444Z,84.084
2023-04-18T00:11:27.615Z,83.689
2023-04-18T00:13:25.881Z,83.742
2023-04-18T00:14:26.013Z,83.681
2023-04-18T00:15:26.147Z,83.839
2023-04-18T00:16:26.315Z,83.706
2023-04-18T00:17:26.653Z,83.424
2023-04-18T00:18:26.015Z,83.540
2023-04-18T00:19:26.180Z,83.515
2023-04-18T00:20:26.504Z,83.870
2023-04-18T00:21:25.739Z,83.652
2023-04-18T00:23:26.235Z,83.704
2023-04-18T00:24:26.460Z,83.403
2023-04-18T00:25:26.581Z,83.313
2023-04-18T00:26:25.770Z,83.429
2023-04-18T00:27:25.955Z,83.395
2023-04-18T00:28:26.192Z,83.162
2023-04-18T00:29:26.615Z,82.729
2023-04-18T00:30:25.767Z,83.069
2023-04-18T00:31:26.406Z,82.808
2023-04-18T00:32:25.670Z,83.019
2023-04-18T00:33:26.206Z,83.021
2023-04-18T00:34:26.316Z,83.017
2023-04-18T00:35:26.482Z,83.071
2023-04-18T00:36:25.650Z,83.069
2023-04-18T00:37:26.226Z,83.069
2023-04-18T00:38:26.384Z,83.073
2023-04-18T00:39:26.552Z,83.044
2023-04-18T00:40:25.720Z,83.128
2023-04-18T00:41:25.883Z,82.809
2023-04-18T00:42:26.298Z,83.101
2023-04-18T00:43:26.552Z,83.279
2023-04-18T00:44:25.718Z,82.947
2023-04-18T00:45:25.951Z,82.869
2023-04-18T00:46:26.237Z,82.767
2023-04-18T00:47:26.593Z,82.640
2023-04-18T00:48:25.880Z,82.340
2023-04-18T00:49:26.087Z,82.445
2023-04-18T00:50:26.343Z,82.445
2023-04-18T00:51:26.551Z,82.079
2023-04-18T00:52:25.856Z,82.136
2023-04-18T00:53:26.040Z,81.980
2023-04-18T00:54:26.256Z,82.048
2023-04-18T00:55:26.455Z,82.025
2023-04-18T00:56:25.589Z,81.854
2023-04-18T00:57:25.760Z,81.936
2023-04-18T00:58:25.960Z,82.010
2023-04-18T00:59:26.103Z,82.226
2023-04-18T01:00:26.336Z,82.226
2023-04-18T01:01:26.649Z,82.478
2023-04-18T01:02:26.313Z,82.437
2023-04-18T01:03:26.811Z,82.550
2023-04-18T01:04:26.057Z,82.478
2023-04-18T01:07:25.957Z,82.617
2023-04-18T01:08:26.360Z,82.790
2023-04-18T01:09:26.539Z,82.977
2023-04-18T01:10:25.653Z,82.666
2023-04-18T01:11:25.800Z,82.415
2023-04-18T01:12:25.941Z,82.508
2023-04-18T01:13:26.099Z,82.426
2023-04-18T01:14:26.285Z,82.561
2023-04-18T01:15:26.487Z,82.197
2023-04-18T01:16:25.980Z,82.277
2023-04-18T01:17:26.240Z,82.323
2023-04-18T01:18:26.571Z,82.293
2023-04-18T01:19:25.737Z,82.312
2023-04-18T01:20:25.991Z,82.176
2023-04-18T01:21:26.183Z,82.188
2023-04-18T01:22:26.356Z,82.024
2023-04-18T01:23:26.561Z,82.180
2023-04-18T01:24:25.696Z,82.130
2023-04-18T01:25:25.852Z,82.045
2023-04-18T01:26:26.054Z,82.031
2023-04-18T01:27:26.251Z,82.107
2023-04-18T01:28:26.424Z,82.251
2023-04-18T01:29:26.648Z,82.109
2023-04-18T01:30:25.878Z,82.151
2023-04-18T01:31:26.293Z,82.188
2023-04-18T01:32:25.779Z,82.275
2023-04-18T01:33:26.149Z,82.258
2023-04-18T01:34:26.295Z,82.344
2023-04-18T01:35:26.517Z,82.222
2023-04-18T01:36:25.613Z,82.230
2023-04-18T01:37:26.271Z,82.224
2023-04-18T01:38:26.498Z,82.361
2023-04-18T01:39:25.699Z,82.537
2023-04-18T01:40:25.893Z,82.354
2023-04-18T01:41:26.056Z,82.354
2023-04-18T01:42:26.201Z,82.645
2023-04-18T01:43:26.303Z,82.596
2023-04-18T01:44:26.501Z,82.350
2023-04-18T01:45:25.667Z,82.691
2023-04-18T01:46:26.063Z,82.500
2023-04-18T01:47:26.578Z,82.663
2023-04-18T01:48:25.923Z,82.584
2023-04-18T01:49:26.004Z,82.577
2023-04-18T01:50:26.120Z,82.741
2023-04-18T01:51:26.341Z,82.537
2023-04-18T01:52:26.553Z,82.609
2023-04-18T01:53:25.678Z,82.546
2023-04-18T01:54:25.840Z,82.445
2023-04-18T01:55:26.171Z,82.603
2023-04-18T01:56:26.456Z,82.655
2023-04-18T01:57:25.637Z,82.502
2023-04-18T01:58:25.902Z,82.579
2023-04-18T01:59:26.101Z,82.527
2023-04-18T02:00:26.323Z,82.405
2023-04-18T02:01:26.962Z,82.519
2023-04-18T02:02:26.490Z,82.306
2023-04-18T02:03:26.803Z,82.243
2023-04-18T02:04:26.132Z,82.237
2023-04-18T02:05:26.355Z,82.443
2023-04-18T02:06:25.632Z,82.346
2023-04-18T02:07:25.802Z,82.424
2023-04-18T02:08:26.027Z,82.443
2023-04-18T02:09:26.212Z,82.394
2023-04-18T02:10:26.393Z,82.603
2023-04-18T02:11:26.566Z,82.588
2023-04-18T02:12:25.756Z,82.636
2023-04-18T02:13:25.971Z,82.714
2023-04-18T02:14:26.159Z,82.691
2023-04-18T02:15:26.334Z,82.674
2023-04-18T02:16:26.685Z,82.685
2023-04-18T02:17:26.036Z,82.693
2023-04-18T02:19:25.755Z,82.731
2023-04-18T02:20:25.966Z,82.739
2023-04-18T02:21:26.169Z,82.777
2023-04-18T02:22:26.324Z,82.781
2023-04-18T02:23:26.452Z,82.767
2023-04-18T02:24:25.624Z,82.758
2023-04-18T02:25:25.796Z,82.705
2023-04-18T02:26:26.068Z,82.783
2023-04-18T02:27:26.209Z,82.857
2023-04-18T02:28:26.396Z,82.981
2023-04-18T02:29:26.585Z,82.905
2023-04-18T02:30:25.947Z,82.916
2023-04-18T02:31:26.281Z,82.897
2023-04-18T02:32:26.797Z,83.010
2023-04-18T02:33:25.979Z,82.930
2023-04-18T02:34:26.143Z,83.010
2023-04-18T02:35:26.314Z,83.097
2023-04-18T02:36:26.547Z,83.073
2023-04-18T02:37:25.696Z,83.172
2023-04-18T02:38:25.947Z,83.218
2023-04-18T02:39:26.203Z,83.252
2023-04-18T02:40:26.534Z,83.204
2023-04-18T02:41:25.680Z,83.143
2023-04-18T02:42:25.930Z,83.328
2023-04-18T02:43:26.098Z,83.294
2023-04-18T02:44:26.265Z,83.349
2023-04-18T02:45:26.557Z,83.332
2023-04-18T02:46:25.766Z,83.376
2023-04-18T02:47:26.034Z,83.258
2023-04-18T02:48:26.051Z,83.494
2023-04-18T02:49:26.296Z,83.487
2023-04-18T02:50:26.549Z,83.513
2023-04-18T02:51:25.656Z,83.508
2023-04-18T02:52:25.814Z,83.611
2023-04-18T02:53:26.027Z,83.590
2023-04-18T02:54:26.357Z,83.586
2023-04-18T02:55:26.541Z,83.656
2023-04-18T02:56:25.727Z,83.654
2023-04-18T02:57:26.040Z,83.712
2023-04-18T02:58:26.343Z,83.635
2023-04-18T02:59:26.500Z,83.672
2023-04-18T03:00:25.681Z,83.803
2023-04-18T03:01:25.967Z,83.797
2023-04-18T03:02:26.674Z,83.670
2023-04-18T03:03:26.630Z,83.782
2023-04-18T03:04:25.839Z,83.817
2023-04-18T03:05:26.360Z,83.952
2023-04-18T03:06:26.578Z,84.013
2023-04-18T03:07:25.777Z,83.851
2023-04-18T03:08:25.940Z,83.717
2023-04-18T03:09:26.371Z,83.899
2023-04-18T03:10:25.596Z,83.858
2023-04-18T03:11:25.777Z,83.881
2023-04-18T03:12:26.040Z,83.925
2023-04-18T03:13:26.355Z,84.043
2023-04-18T03:14:26.560Z,84.047
2023-04-18T03:15:25.800Z,84.063
2023-04-18T03:16:26.445Z,84.051
2023-04-18T03:17:25.692Z,84.106
2023-04-18T03:18:26.067Z,83.998
2023-04-18T03:19:26.272Z,84.063
2023-04-18T03:20:26.522Z,84.110
2023-04-18T03:21:25.671Z,84.293
2023-04-18T03:22:25.840Z,84.248
2023-04-18T03:23:26.062Z,84.181
2023-04-18T03:24:26.259Z,84.270
2023-04-18T03:25:26.512Z,84.280
2023-04-18T03:26:25.637Z,84.236
2023-04-18T03:27:25.825Z,84.326
2023-04-18T03:28:26.023Z,84.272
2023-04-18T03:29:26.219Z,84.278
2023-04-18T03:30:26.426Z,84.383
2023-04-18T03:31:26.690Z,84.332
2023-04-18T03:32:26.218Z,84.427
2023-04-18T03:33:25.804Z,84.459
2023-04-18T03:34:26.046Z,84.549
2023-04-18T03:35:26.379Z,84.526
2023-04-18T03:36:25.594Z,84.566
2023-04-18T03:37:25.680Z,84.528
2023-04-18T03:38:26.010Z,84.511
2023-04-18T03:39:26.111Z,84.673
2023-04-18T03:40:26.317Z,84.564
2023-04-18T03:41:26.519Z,84.620
2023-04-18T03:42:25.639Z,84.599
2023-04-18T03:43:25.799Z,84.633
2023-04-18T03:44:26.000Z,84.473
2023-04-18T03:45:26.251Z,84.606
2023-04-18T03:46:26.552Z,84.621
2023-04-18T03:47:25.966Z,84.610
2023-04-18T03:48:26.327Z,84.686
2023-04-18T03:49:26.557Z,84.705
2023-04-18T03:50:25.714Z,84.700
2023-04-18T03:51:25.895Z,84.803
2023-04-18T03:52:27.039Z,84.726
2023-04-18T03:53:25.681Z,84.787
2023-04-18T03:54:25.754Z,84.560
2023-04-18T03:55:25.933Z,84.711
2023-04-18T03:56:26.193Z,84.652
2023-04-18T03:57:26.349Z,84.759
2023-04-18T03:58:26.464Z,84.726
2023-04-18T03:59:25.594Z,84.682
2023-04-18T04:00:25.889Z,84.711
2023-04-18T04:01:26.183Z,84.839
2023-04-18T04:02:26.767Z,84.805
2023-04-18T04:03:27.151Z,84.785
2023-04-18T04:04:26.192Z,84.623
2023-04-18T04:05:25.865Z,84.623
2023-04-18T04:06:26.062Z,84.742
2023-04-18T04:07:26.319Z,84.681
2023-04-18T04:08:27.006Z,84.690
2023-04-18T04:09:26.451Z,84.656
2023-04-18T04:10:26.587Z,84.768
2023-04-18T04:11:25.721Z,84.763
2023-04-18T04:12:25.916Z,84.782
2023-04-18T04:13:26.124Z,84.770
2023-04-18T04:14:26.380Z,84.820
2023-04-18T04:15:26.572Z,84.801
2023-04-18T04:16:25.661Z,84.806
2023-04-18T04:17:26.212Z,84.705
2023-04-18T04:18:25.583Z,84.730
2023-04-18T04:19:25.729Z,84.879
2023-04-18T04:20:25.988Z,84.900
2023-04-18T04:21:26.256Z,84.846
2023-04-18T04:22:26.524Z,84.799
2023-04-18T04:23:25.749Z,84.833
2023-04-18T04:24:25.827Z,85.007
2023-04-18T04:25:26.126Z,84.976
2023-04-18T04:26:26.362Z,84.913
2023-04-18T04:27:26.668Z,84.940
2023-04-18T04:28:25.867Z,84.890
2023-04-18T04:29:26.051Z,84.948
2023-04-18T04:30:26.191Z,84.970
2023-04-18T04:31:26.400Z,84.900
2023-04-18T04:32:25.913Z,84.860
2023-04-18T04:33:26.257Z,84.881
2023-04-18T04:34:26.450Z,84.909
2023-04-18T04:35:25.696Z,84.757
2023-04-18T04:36:25.802Z,84.856
2023-04-18T04:37:26.047Z,84.866
2023-04-18T04:38:26.315Z,84.839
2023-04-18T04:39:26.618Z,84.896
2023-04-18T04:40:25.879Z,84.892
2023-04-18T04:41:26.164Z,84.877
2023-04-18T04:42:26.349Z,84.763
2023-04-18T04:43:25.591Z,84.871
2023-04-18T04:44:25.937Z,84.810
2023-04-18T04:45:26.463Z,84.778
2023-04-18T04:46:25.938Z,84.785
2023-04-18T04:47:26.272Z,84.761
2023-04-18T04:48:25.595Z,84.766
2023-04-18T04:49:25.755Z,84.679
2023-04-18T04:50:25.931Z,84.679
2023-04-18T04:51:26.160Z,84.656
2023-04-18T04:52:26.375Z,84.684
2023-04-18T04:53:26.512Z,84.623
2023-04-18T04:54:25.852Z,84.597
2023-04-18T04:55:26.033Z,84.600
2023-04-18T04:56:26.235Z,84.640
2023-04-18T04:57:26.423Z,84.610
2023-04-18T04:58:25.879Z,84.759
2023-04-18T04:59:26.138Z,84.665
2023-04-18T05:00:26.347Z,84.745
2023-04-18T05:01:26.690Z,84.635
2023-04-18T05:02:26.357Z,84.732
2023-04-18T05:03:26.690Z,84.787
2023-04-18T05:04:26.218Z,84.736
2023-04-18T05:05:26.147Z,84.583
2023-04-18T05:06:26.292Z,84.646
2023-04-18T05:07:26.515Z,84.686
2023-04-18T05:08:25.656Z,84.698
2023-04-18T05:09:25.844Z,84.633
2023-04-18T05:10:26.041Z,84.650
2023-04-18T05:11:26.152Z,84.723
2023-04-18T05:12:26.308Z,84.717
2023-04-18T05:13:26.504Z,84.784
2023-04-18T05:14:25.684Z,84.827
2023-04-18T05:15:25.938Z,84.898
2023-04-18T05:16:26.264Z,84.766
2023-04-18T05:17:26.682Z,84.925
2023-04-18T05:18:26.055Z,84.808
2023-04-18T05:19:26.255Z,84.797
2023-04-18T05:20:26.420Z,84.921
2023-04-18T05:21:25.628Z,84.955
2023-04-18T05:22:25.788Z,84.969
2023-04-18T05:23:26.002Z,84.866
2023-04-18T05:24:26.182Z,84.866
2023-04-18T05:25:26.600Z,84.793
2023-04-18T05:26:25.770Z,84.967
2023-04-18T05:27:26.036Z,84.755
2023-04-18T05:28:26.199Z,84.867
2023-04-18T05:29:26.427Z,84.780
2023-04-18T05:30:25.695Z,84.637
2023-04-18T05:31:26.047Z,84.671
2023-04-18T05:32:26.296Z,84.688
2023-04-18T05:33:25.809Z,84.589
2023-04-18T05:34:26.009Z,84.698
2023-04-18T05:35:26.291Z,84.742
2023-04-18T05:36:26.584Z,84.808
2023-04-18T05:37:25.743Z,84.761
2023-04-18T05:38:25.916Z,84.679
2023-04-18T05:39:26.589Z,84.833
2023-04-18T05:40:25.945Z,84.705
2023-04-18T05:41:26.047Z,84.686
2023-04-18T05:42:26.172Z,84.599
2023-04-18T05:43:26.384Z,84.448
2023-04-18T05:44:26.630Z,84.261
2023-04-18T05:45:25.789Z,84.293
2023-04-18T05:46:26.101Z,84.082
2023-04-18T05:47:26.680Z,84.030
2023-04-18T05:48:25.972Z,83.931
2023-04-18T05:49:26.104Z,83.910
2023-04-18T05:50:26.277Z,83.742
2023-04-18T05:51:27.190Z,83.435
2023-04-18T05:52:26.413Z,83.256
2023-04-18T05:54:25.824Z,83.065
2023-04-18T05:55:26.011Z,82.756
2023-04-18T05:56:26.263Z,82.691
2023-04-18T05:57:26.434Z,82.584
2023-04-18T05:58:26.599Z,82.315
2023-04-18T05:59:25.848Z,82.458
2023-04-18T06:00:26.060Z,82.243
2023-04-18T06:01:26.256Z,82.281
2023-04-18T06:02:26.870Z,82.481
2023-04-18T06:03:25.797Z,82.863
2023-04-18T06:04:26.591Z,82.857
2023-04-18T06:05:26.392Z,82.916
2023-04-18T06:07:26.224Z,82.911
2023-04-18T06:08:26.445Z,83.244
2023-04-18T06:09:26.691Z,82.924
2023-04-18T06:10:25.879Z,82.972
2023-04-18T06:11:26.104Z,82.733
2023-04-18T06:12:26.255Z,82.796
2023-04-18T06:13:26.503Z,82.828
2023-04-18T06:14:25.772Z,82.487
2023-04-18T06:15:25.848Z,82.706
2023-04-18T06:16:26.336Z,82.554
2023-04-18T06:17:25.867Z,82.529
2023-04-18T06:18:26.249Z,82.476
2023-04-18T06:19:26.448Z,82.514
2023-04-18T06:20:26.643Z,82.235
2023-04-18T06:21:25.803Z,81.930
2023-04-18T06:22:26.076Z,82.018
2023-04-18T06:23:26.330Z,82.006
2023-04-18T06:24:26.543Z,81.957
2023-04-18T06:25:25.852Z,81.814
2023-04-18T06:26:26.103Z,81.961
2023-04-18T06:27:33.519Z,81.881
2023-04-18T06:29:25.925Z,81.881
2023-04-18T06:30:26.130Z,81.785
2023-04-18T06:31:26.390Z,81.642
2023-04-18T06:32:25.994Z,81.629
2023-04-18T06:33:26.475Z,81.387
2023-04-18T06:34:25.650Z,80.980
2023-04-18T06:35:28.126Z,80.736
2023-04-18T06:37:26.440Z,80.702
2023-04-18T06:38:26.638Z,80.692
2023-04-18T06:39:25.825Z,80.494
2023-04-18T06:40:26.124Z,80.074
2023-04-18T06:41:26.322Z,80.175
2023-04-18T06:42:26.597Z,80.044
2023-04-18T06:43:25.704Z,79.790
2023-04-18T06:45:25.950Z,79.594
2023-04-18T06:46:26.635Z,79.082
2023-04-18T06:47:25.917Z,78.802
2023-04-18T06:48:26.250Z,78.178
2023-04-18T06:49:28.066Z,78.024
2023-04-18T06:50:26.362Z,77.494
2023-04-18T06:51:26.552Z,76.628
2023-04-18T06:52:25.732Z,76.490
2023-04-18T06:53:25.965Z,76.139
2023-04-18T06:54:26.412Z,76.509
2023-04-18T06:55:26.404Z,76.319
2023-04-18T06:56:26.591Z,75.981
2023-04-18T06:57:25.759Z,76.238
2023-04-18T06:58:25.969Z,76.420
2023-04-18T06:59:26.174Z,76.729
2023-04-18T07:00:26.422Z,76.860
2023-04-18T07:01:25.773Z,77.259
2023-04-18T07:02:26.297Z,77.106
2023-04-18T07:03:30.062Z,76.561
2023-04-18T07:05:26.698Z,77.421
2023-04-18T07:06:26.018Z,77.162
2023-04-18T07:07:26.208Z,77.480
2023-04-18T07:08:25.705Z,77.659
2023-04-18T07:09:26.121Z,77.385
2023-04-18T07:10:26.404Z,77.286
2023-04-18T07:11:25.627Z,77.276
2023-04-18T07:12:25.799Z,77.265
2023-04-18T07:13:26.032Z,76.963
2023-04-18T07:14:26.354Z,76.622
2023-04-18T07:15:26.570Z,77.677
2023-04-18T07:16:25.903Z,77.232
2023-04-18T07:17:26.277Z,77.019
2023-04-18T07:18:37.781Z,77.165
2023-04-18T07:19:25.620Z,76.509
2023-04-18T07:20:25.756Z,76.309
2023-04-18T07:21:25.939Z,76.212
2023-04-18T07:22:26.178Z,75.689
2023-04-18T07:23:26.404Z,75.352
2023-04-18T07:24:26.736Z,74.695
2023-04-18T07:25:26.128Z,74.831
2023-04-18T07:26:26.359Z,74.711
2023-04-18T07:27:26.587Z,74.802
2023-04-18T07:28:25.943Z,74.106
2023-04-18T07:29:26.227Z,74.686
2023-04-18T07:30:27.179Z,74.793
2023-04-18T07:31:26.661Z,73.633
2023-04-18T07:32:27.505Z,73.435
2023-04-18T07:33:25.976Z,73.011
2023-04-18T07:34:26.219Z,73.793
2023-04-18T07:35:26.524Z,73.108
2023-04-18T07:36:25.745Z,72.832
2023-04-18T07:37:25.900Z,72.918
2023-04-18T07:38:26.128Z,72.269
2023-04-18T07:39:26.675Z,71.649
2023-04-18T07:40:25.916Z,71.512
2023-04-18T07:41:26.264Z,71.174
2023-04-18T07:42:26.112Z,71.361
2023-04-18T07:43:27.225Z,71.840
2023-04-18T07:44:26.184Z,71.686
2023-04-18T07:45:26.224Z,72.161
2023-04-18T07:46:26.292Z,72.243
2023-04-18T07:47:27.485Z,72.397
2023-04-18T07:48:26.800Z,71.718
2023-04-18T07:49:26.213Z,71.724
2023-04-18T07:50:26.745Z,71.319
2023-04-18T07:51:27.173Z,72.075
2023-04-18T07:52:26.516Z,71.514
2023-04-18T07:53:25.874Z,71.583
2023-04-18T07:54:26.284Z,70.884
2023-04-18T07:55:25.848Z,69.448
2023-04-18T07:56:26.296Z,69.544
2023-04-18T07:57:26.542Z,68.678
2023-04-18T07:58:25.779Z,67.796
2023-04-18T07:59:26.045Z,67.745
2023-04-18T08:00:26.743Z,67.632
2023-04-18T08:01:26.404Z,68.603
2023-04-18T08:02:25.918Z,69.196
2023-04-18T08:03:26.313Z,69.660
2023-04-18T08:04:29.889Z,69.332
2023-04-18T08:05:26.893Z,69.320
2023-04-18T08:06:26.177Z,69.925
2023-04-18T08:07:26.383Z,69.845
2023-04-18T08:08:25.737Z,68.445
2023-04-18T08:09:27.149Z,67.695
2023-04-18T08:10:26.646Z,68.712
2023-04-18T08:11:26.102Z,69.225
2023-04-18T08:12:26.416Z,67.804
2023-04-18T08:13:26.128Z,68.884
2023-04-18T08:14:26.351Z,69.397
2023-04-18T08:15:26.631Z,69.280
2023-04-18T08:16:26.111Z,70.183
2023-04-18T08:19:26.295Z,68.920
2023-04-18T08:20:26.662Z,69.082
2023-04-18T08:21:25.822Z,69.782
2023-04-18T08:22:26.094Z,68.592
2023-04-18T08:24:29.111Z,67.920
2023-04-18T08:26:32.056Z,67.075
2023-04-18T08:27:32.324Z,66.778
2023-04-18T08:28:31.799Z,66.229
2023-04-18T08:29:32.195Z,65.288
2023-04-18T08:30:32.543Z,65.073
2023-04-18T08:31:31.979Z,65.853
2023-04-18T08:32:32.426Z,66.385
2023-04-18T08:33:31.946Z,66.280
2023-04-18T08:34:32.172Z,66.074
2023-04-18T08:35:32.322Z,66.976
2023-04-18T08:36:32.614Z,67.276
2023-04-18T08:37:31.845Z,65.809
2023-04-18T08:38:32.029Z,66.309
2023-04-18T08:39:32.744Z,65.321
2023-04-18T08:40:31.972Z,64.775
2023-04-18T08:41:32.144Z,64.893
2023-04-18T08:42:32.353Z,65.048
2023-04-18T08:44:31.896Z,64.558
2023-04-18T08:45:32.316Z,63.997
2023-04-18T08:46:31.819Z,63.390
2023-04-18T08:47:32.194Z,63.697
2023-04-18T08:48:31.687Z,63.354
2023-04-18T08:49:32.457Z,62.776
2023-04-18T08:50:31.649Z,63.072
2023-04-18T08:51:31.932Z,62.700
2023-04-18T08:52:32.800Z,62.753
2023-04-18T08:53:32.263Z,62.387
2023-04-18T08:54:32.790Z,63.017
2023-04-18T08:57:31.713Z,62.750
2023-04-18T08:58:32.389Z,62.696
2023-04-18T08:59:31.754Z,61.792
2023-04-18T09:00:32.630Z,61.773
2023-04-18T09:01:31.964Z,62.578
2023-04-18T09:02:32.724Z,61.718
2023-04-18T09:03:31.870Z,61.720
2023-04-18T09:04:32.160Z,63.003
2023-04-18T09:05:32.533Z,61.725
2023-04-18T09:06:31.809Z,62.683
2023-04-18T09:07:32.046Z,62.135
2023-04-18T09:08:32.329Z,62.593
2023-04-18T09:09:32.800Z,62.320
2023-04-18T09:10:31.944Z,63.089
2023-04-18T09:11:31.927Z,62.959
2023-04-18T09:12:32.165Z,63.665
2023-04-18T09:13:32.428Z,63.825
2023-04-18T09:14:31.619Z,63.205
2023-04-18T09:15:31.936Z,63.898
2023-04-18T09:16:32.261Z,63.919
2023-04-18T09:17:31.712Z,63.448
2023-04-18T09:18:32.508Z,63.509
2023-04-18T09:19:31.751Z,63.522
2023-04-18T09:20:32.094Z,63.566
2023-04-18T09:21:32.371Z,63.778
2023-04-18T09:22:32.530Z,64.260
2023-04-18T09:23:31.704Z,64.504
2023-04-18T09:24:31.907Z,64.871
2023-04-18T09:25:32.111Z,65.254
2023-04-18T09:26:32.362Z,65.527
2023-04-18T09:27:31.633Z,65.313
2023-04-18T09:28:31.981Z,65.798
2023-04-18T09:29:32.683Z,65.723
2023-04-18T09:30:32.210Z,65.563
2023-04-18T09:31:32.843Z,65.637
2023-04-18T09:32:32.138Z,65.387
2023-04-18T09:33:32.614Z,65.826
2023-04-18T09:34:32.201Z,65.471
2023-04-18T09:35:32.593Z,64.995
2023-04-18T09:36:31.816Z,64.682
2023-04-18T09:37:32.323Z,64.058
2023-04-18T09:38:32.595Z,64.401
2023-04-18T09:39:31.774Z,64.315
2023-04-18T09:40:31.927Z,64.335
2023-04-18T09:41:32.736Z,64.506
2023-04-18T09:42:31.904Z,64.321
2023-04-18T09:43:32.166Z,64.253
2023-04-18T09:44:34.215Z,64.516
2023-04-18T09:47:32.607Z,63.352
2023-04-18T09:48:32.051Z,62.908
2023-04-18T09:49:32.247Z,63.879
2023-04-18T09:50:32.444Z,64.857
2023-04-18T09:51:31.799Z,64.670
2023-04-18T09:52:31.990Z,65.372
2023-04-18T09:53:32.180Z,65.748
2023-04-18T09:54:31.657Z,65.965
2023-04-18T09:55:32.223Z,65.746
2023-04-18T09:56:32.453Z,65.973
2023-04-18T09:57:31.683Z,65.645
2023-04-18T09:58:32.254Z,66.707
2023-04-18T09:59:32.452Z,66.379
2023-04-18T10:00:31.667Z,65.679
2023-04-18T10:01:32.710Z,65.595
2023-04-18T10:02:32.301Z,64.869
2023-04-18T10:03:32.004Z,65.077
2023-04-18T10:04:33.173Z,65.290
2023-04-18T10:05:31.795Z,64.750
2023-04-18T10:06:32.236Z,64.243
2023-04-18T10:07:32.472Z,64.432
2023-04-18T10:08:31.644Z,64.422
2023-04-18T10:09:32.220Z,64.396
2023-04-18T10:10:32.427Z,63.795
2023-04-18T10:11:31.699Z,64.176
2023-04-18T10:12:32.232Z,63.976
2023-04-18T10:13:32.620Z,63.482
2023-04-18T10:14:31.915Z,64.048
2023-04-18T10:15:32.388Z,64.441
2023-04-18T10:16:34.898Z,63.776
2023-04-18T10:17:31.844Z,64.850
2023-04-18T10:19:34.800Z,64.403
2023-04-18T10:20:35.316Z,64.195
2023-04-18T10:21:35.554Z,63.020
2023-04-18T10:22:34.766Z,63.434
2023-04-18T10:23:35.088Z,63.730
2023-04-18T10:24:35.375Z,63.598
2023-04-18T10:25:34.866Z,62.978
2023-04-18T10:26:35.145Z,62.606
2023-04-18T10:27:35.413Z,63.589
2023-04-18T10:28:34.875Z,62.410
2023-04-18T10:29:35.069Z,62.179
2023-04-18T10:30:35.272Z,61.910
2023-04-18T10:31:35.443Z,62.866
2023-04-18T10:32:34.896Z,62.811
2023-04-18T10:33:43.838Z,62.948
2023-04-18T10:35:41.371Z,63.118
2023-04-18T10:37:38.840Z,62.149
2023-04-18T10:38:39.121Z,60.665
2023-04-18T10:39:39.385Z,61.554
2023-04-18T10:40:38.716Z,60.501
2023-04-18T10:41:38.985Z,60.497
2023-04-18T10:42:39.212Z,59.736
2023-04-18T10:43:39.442Z,58.992
2023-04-18T10:44:38.698Z,59.837
2023-04-18T10:45:38.967Z,58.977
2023-04-18T10:47:39.029Z,59.232
2023-04-18T10:48:40.181Z,60.407
2023-04-18T10:50:38.704Z,60.022
2023-04-18T10:51:38.975Z,61.922
2023-04-18T10:52:39.185Z,62.650
2023-04-18T10:53:39.412Z,62.536
2023-04-18T10:54:38.757Z,63.276
2023-04-18T10:55:39.258Z,63.780
2023-04-18T10:56:39.564Z,63.833
2023-04-18T10:57:38.733Z,64.403
2023-04-18T10:58:38.992Z,64.291
2023-04-18T11:00:38.701Z,63.213
2023-04-18T11:01:39.518Z,62.763
2023-04-18T11:02:38.950Z,63.736
2023-04-18T11:03:39.364Z,63.537
2023-04-18T11:04:38.858Z,63.654
2023-04-18T11:05:39.340Z,63.982
2023-04-18T11:06:39.684Z,63.696
2023-04-18T11:07:38.950Z,63.757
2023-04-18T11:08:39.092Z,63.228
2023-04-18T11:09:39.280Z,62.095
2023-04-18T11:10:39.851Z,63.316
2023-04-18T11:11:39.137Z,61.721
2023-04-18T11:12:39.408Z,61.699
2023-04-18T11:13:38.652Z,61.760
2023-04-18T11:14:38.932Z,61.988
2023-04-18T11:15:39.145Z,61.889
2023-04-18T11:16:39.504Z,62.170
2023-04-18T11:17:38.966Z,61.029
2023-04-18T11:18:39.474Z,60.234
2023-04-18T11:19:38.710Z,58.687
2023-04-18T11:20:38.917Z,59.101
2023-04-18T11:21:39.129Z,58.765
2023-04-18T11:22:39.647Z,58.805
2023-04-18T11:23:38.945Z,60.808
2023-04-18T11:24:39.137Z,61.397
2023-04-18T11:25:39.316Z,61.210
2023-04-18T11:26:38.788Z,61.718
2023-04-18T11:27:39.448Z,61.739
2023-04-18T11:28:38.733Z,61.405
2023-04-18T11:29:39.025Z,62.397
2023-04-18T11:30:39.315Z,63.022
2023-04-18T11:31:39.665Z,63.207
2023-04-18T11:32:39.534Z,62.997
2023-04-18T11:33:39.064Z,63.625
2023-04-18T11:34:39.474Z,64.586
2023-04-18T11:35:38.669Z,64.684
2023-04-18T11:36:38.912Z,64.550
2023-04-18T11:37:39.333Z,64.703
2023-04-18T11:38:41.574Z,64.951
2023-04-18T11:41:39.464Z,64.401
2023-04-18T11:42:38.853Z,64.052
2023-04-18T11:43:39.199Z,63.762
2023-04-18T11:44:39.441Z,63.499
2023-04-18T11:46:39.213Z,62.795
2023-04-18T11:47:39.570Z,62.877
2023-04-18T11:48:38.996Z,63.329
2023-04-18T11:49:39.280Z,63.099
2023-04-18T11:50:38.891Z,63.285
2023-04-18T11:51:39.031Z,62.704
2023-04-18T11:52:39.427Z,62.841
2023-04-18T11:53:38.600Z,62.448
2023-04-18T11:54:38.797Z,61.943
2023-04-18T11:55:38.992Z,60.983
2023-04-18T11:56:39.215Z,59.656
2023-04-18T11:57:39.408Z,58.292
2023-04-18T11:58:38.701Z,60.058
2023-04-18T11:59:39.004Z,61.018
2023-04-18T12:00:39.256Z,60.669
2023-04-18T12:01:39.555Z,60.482
2023-04-18T12:02:39.425Z,60.449
2023-04-18T12:03:39.078Z,60.190
2023-04-18T12:04:39.930Z,58.612
2023-04-18T12:05:40.901Z,59.379
2023-04-18T12:06:38.713Z,58.088
2023-04-18T12:07:38.896Z,58.254
2023-04-18T12:08:39.070Z,59.059
2023-04-18T12:09:39.213Z,58.761
2023-04-18T12:10:39.410Z,58.506
2023-04-18T12:11:39.616Z,58.599
2023-04-18T12:12:38.856Z,58.298
2023-04-18T12:13:39.203Z,57.888
2023-04-18T12:14:39.496Z,56.322
2023-04-18T12:15:38.839Z,54.641
2023-04-18T12:16:39.360Z,54.657
2023-04-18T12:17:39.629Z,54.941
2023-04-18T12:18:39.193Z,55.467
2023-04-18T12:19:39.531Z,55.631
2023-04-18T12:20:38.684Z,53.306
2023-04-18T12:21:39.016Z,53.718
2023-04-18T12:22:39.283Z,52.549
2023-04-18T12:23:39.587Z,52.019
2023-04-18T12:24:38.794Z,51.811
2023-04-18T12:25:39.176Z,54.933
2023-04-18T12:26:39.490Z,56.436
2023-04-18T12:27:38.666Z,56.047
2023-04-18T12:28:38.899Z,56.444
2023-04-18T12:29:39.231Z,55.646
2023-04-18T12:30:39.548Z,55.791
2023-04-18T12:31:38.990Z,55.868
2023-04-18T12:32:39.038Z,55.675
2023-04-18T12:33:39.312Z,55.957
2023-04-18T12:34:38.674Z,57.571
2023-04-18T12:35:38.821Z,57.962
2023-04-18T12:36:39.011Z,58.235
2023-04-18T12:37:40.439Z,58.063
2023-04-18T12:39:38.851Z,57.109
2023-04-18T12:40:39.081Z,57.066
2023-04-18T12:41:39.369Z,56.198
2023-04-18T12:42:39.317Z,56.200
2023-04-18T12:43:39.616Z,56.747
2023-04-18T12:44:38.898Z,56.543
2023-04-18T12:45:39.082Z,55.942
2023-04-18T12:46:38.801Z,56.655
2023-04-18T12:47:39.403Z,56.495
2023-04-18T12:48:38.936Z,56.043
2023-04-18T12:49:39.193Z,56.543
2023-04-18T12:50:39.532Z,57.088
2023-04-18T12:51:38.756Z,57.230
2023-04-18T12:52:39.036Z,56.932
2023-04-18T12:53:39.363Z,57.031
2023-04-18T12:54:39.624Z,57.090
2023-04-18T12:55:38.822Z,57.138
2023-04-18T12:56:39.057Z,57.556
2023-04-18T12:57:38.909Z,56.949
2023-04-18T12:58:39.116Z,57.689